createdAt,value
2023-04-02T00:00:57.902Z,1002.93
2023-04-02T00:01:58.261Z,1002.97
2023-04-02T00:02:58.036Z,1002.98
2023-04-02T00:03:58.013Z,1003.01
2023-04-02T00:04:58.020Z,1003.09
2023-04-02T00:05:58.051Z,1003.03
2023-04-02T00:06:58.083Z,1003.03
2023-04-02T00:07:58.667Z,1003.06
2023-04-02T00:08:58.139Z,1003.08
2023-04-02T00:09:58.167Z,1003.14
2023-04-02T00:10:58.199Z,1003.18
2023-04-02T00:11:58.245Z,1003.21
2023-04-02T00:12:58.254Z,1003.19
2023-04-02T00:13:58.292Z,1003.30
2023-04-02T00:14:58.317Z,1003.28
2023-04-02T00:15:58.354Z,1003.28
2023-04-02T00:16:58.371Z,1003.38
2023-04-02T00:17:58.426Z,1003.37
2023-04-02T00:18:58.427Z,1003.36
2023-04-02T00:19:58.469Z,1003.43
2023-04-02T00:20:58.825Z,1003.42
2023-04-02T00:21:58.518Z,1003.43
2023-04-02T00:22:58.676Z,1003.45
2023-04-02T00:23:58.569Z,1003.47
2023-04-02T00:24:58.603Z,1003.50
2023-04-02T00:25:58.641Z,1003.52
2023-04-02T00:26:58.773Z,1003.52
2023-04-02T00:27:59.015Z,1003.53
2023-04-02T00:28:58.720Z,1003.58
2023-04-02T00:29:58.751Z,1003.55
2023-04-02T00:30:58.779Z,1003.60
2023-04-02T00:31:58.867Z,1003.61
2023-04-02T00:32:58.871Z,1003.70
2023-04-02T00:33:58.866Z,1003.64
2023-04-02T00:34:59.199Z,1003.65
2023-04-02T00:35:58.985Z,1003.69
2023-04-02T00:36:58.957Z,1003.69
2023-04-02T00:37:58.979Z,1003.75
2023-04-02T00:38:59.012Z,1003.77
2023-04-02T00:39:59.042Z,1003.75
2023-04-02T00:40:59.066Z,1003.72
2023-04-02T00:41:59.403Z,1003.72
2023-04-02T00:42:59.194Z,1003.76
2023-04-02T00:43:59.177Z,1003.81
2023-04-02T00:44:59.191Z,1003.85
2023-04-02T00:45:59.233Z,1003.85
2023-04-02T00:46:59.249Z,1003.84
2023-04-02T00:47:59.286Z,1003.86
2023-04-02T00:48:59.607Z,1003.88
2023-04-02T00:49:59.333Z,1003.87
2023-04-02T00:50:59.361Z,1003.92
2023-04-02T00:51:59.393Z,1003.94
2023-04-02T00:52:59.447Z,1003.97
2023-04-02T00:53:59.448Z,1004.00
2023-04-02T00:54:59.486Z,1004.01
2023-04-02T00:55:59.813Z,1004.05
2023-04-02T00:56:59.567Z,1004.05
2023-04-02T00:57:59.562Z,1004.07
2023-04-02T00:58:59.629Z,1004.11
2023-04-02T00:59:59.694Z,1004.09
2023-04-02T01:00:59.666Z,1004.13
2023-04-02T01:01:59.678Z,1004.16
2023-04-02T01:03:00.098Z,1004.18
2023-04-02T01:03:59.743Z,1004.16
2023-04-02T01:04:59.825Z,1004.19
2023-04-02T01:05:59.797Z,1004.21
2023-04-02T01:06:59.833Z,1004.27
2023-04-02T01:07:59.859Z,1004.29
2023-04-02T01:08:59.908Z,1004.25
2023-04-02T01:10:00.209Z,1004.30
2023-04-02T01:10:59.950Z,1004.30
2023-04-02T01:11:59.967Z,1004.42
2023-04-02T01:13:00.012Z,1004.33
2023-04-02T01:14:00.039Z,1004.42
2023-04-02T01:15:00.078Z,1004.38
2023-04-02T01:16:00.163Z,1004.35
2023-04-02T01:17:00.431Z,1004.42
2023-04-02T01:18:00.214Z,1004.44
2023-04-02T01:19:00.173Z,1004.47
2023-04-02T01:20:00.217Z,1004.46
2023-04-02T01:21:00.235Z,1004.50
2023-04-02T01:22:00.272Z,1004.53
2023-04-02T01:23:00.588Z,1004.52
2023-04-02T01:24:00.358Z,1004.54
2023-04-02T01:25:00.344Z,1004.53
2023-04-02T01:26:00.377Z,1004.56
2023-04-02T01:27:00.430Z,1004.55
2023-04-02T01:28:00.572Z,1004.61
2023-04-02T01:29:00.762Z,1004.58
2023-04-02T01:30:00.496Z,1004.55
2023-04-02T01:31:00.539Z,1004.61
2023-04-02T01:32:00.628Z,1004.60
2023-04-02T01:33:00.615Z,1004.66
2023-04-02T01:34:00.609Z,1004.67
2023-04-02T01:35:00.940Z,1004.63
2023-04-02T01:36:00.691Z,1004.66
2023-04-02T01:37:00.701Z,1004.69
2023-04-02T01:38:00.732Z,1004.71
2023-04-02T01:39:00.755Z,1004.77
2023-04-02T01:40:00.995Z,1004.77
2023-04-02T01:41:00.813Z,1004.79
2023-04-02T01:42:01.151Z,1004.81
2023-04-02T01:43:00.874Z,1004.81
2023-04-02T01:44:00.897Z,1004.87
2023-04-02T01:45:00.935Z,1004.90
2023-04-02T01:46:00.957Z,1004.89
2023-04-02T01:47:00.989Z,1004.97
2023-04-02T01:48:01.082Z,1004.96
2023-04-02T01:49:01.403Z,1005.02
2023-04-02T01:50:01.102Z,1005.00
2023-04-02T01:51:01.108Z,1005.06
2023-04-02T01:52:01.135Z,1005.10
2023-04-02T01:53:01.169Z,1005.08
2023-04-02T01:54:01.199Z,1005.10
2023-04-02T01:55:01.231Z,1005.11
2023-04-02T01:56:01.560Z,1005.13
2023-04-02T01:57:01.374Z,1005.16
2023-04-02T01:58:01.322Z,1005.13
2023-04-02T01:59:01.350Z,1005.22
2023-04-02T02:00:01.364Z,1005.21
2023-04-02T02:01:01.419Z,1005.21
2023-04-02T02:02:01.499Z,1005.22
2023-04-02T02:03:01.777Z,1005.25
2023-04-02T02:04:01.516Z,1005.26
2023-04-02T02:05:01.521Z,1005.29
2023-04-02T02:06:01.551Z,1005.30
2023-04-02T02:07:01.582Z,1005.29
2023-04-02T02:08:01.611Z,1005.36
2023-04-02T02:09:01.630Z,1005.33
2023-04-02T02:11:01.993Z,1005.39
2023-04-02T02:12:01.718Z,1005.39
2023-04-02T02:14:01.774Z,1005.44
2023-04-02T02:15:01.821Z,1005.47
2023-04-02T02:16:01.922Z,1005.45
2023-04-02T02:17:01.865Z,1005.48
2023-04-02T02:18:02.278Z,1005.59
2023-04-02T02:19:01.984Z,1005.55
2023-04-02T02:20:01.978Z,1005.58
2023-04-02T02:21:01.986Z,1005.61
2023-04-02T02:22:02.026Z,1005.65
2023-04-02T02:23:02.042Z,1005.60
2023-04-02T02:24:02.077Z,1005.66
2023-04-02T02:25:02.415Z,1005.71
2023-04-02T02:26:02.141Z,1005.70
2023-04-02T02:27:02.161Z,1005.76
2023-04-02T02:28:02.189Z,1005.72
2023-04-02T02:29:02.229Z,1005.70
2023-04-02T02:30:02.260Z,1005.80
2023-04-02T02:31:02.284Z,1005.82
2023-04-02T02:32:02.671Z,1005.84
2023-04-02T02:33:02.373Z,1005.87
2023-04-02T02:34:02.364Z,1005.92
2023-04-02T02:35:02.396Z,1005.96
2023-04-02T02:36:02.465Z,1005.96
2023-04-02T02:37:02.473Z,1006.01
2023-04-02T02:38:02.483Z,1006.00
2023-04-02T02:39:02.815Z,1006.06
2023-04-02T02:41:02.570Z,1006.13
2023-04-02T02:42:02.601Z,1006.12
2023-04-02T02:43:02.633Z,1006.13
2023-04-02T02:44:02.658Z,1006.15
2023-04-02T02:45:02.692Z,1006.19
2023-04-02T02:46:03.041Z,1006.22
2023-04-02T02:47:02.746Z,1006.21
2023-04-02T02:48:02.796Z,1006.24
2023-04-02T02:49:02.807Z,1006.23
2023-04-02T02:50:02.830Z,1006.27
2023-04-02T02:51:02.860Z,1006.30
2023-04-02T02:52:02.914Z,1006.30
2023-04-02T02:53:03.231Z,1006.33
2023-04-02T02:54:02.955Z,1006.35
2023-04-02T02:55:02.976Z,1006.37
2023-04-02T02:56:03.016Z,1006.36
2023-04-02T02:57:03.082Z,1006.41
2023-04-02T02:58:03.074Z,1006.37
2023-04-02T02:59:03.092Z,1006.42
2023-04-02T03:00:03.430Z,1006.43
2023-04-02T03:01:03.202Z,1006.50
2023-04-02T03:02:03.180Z,1006.49
2023-04-02T03:03:03.289Z,1006.48
2023-04-02T03:04:03.335Z,1006.51
2023-04-02T03:05:03.268Z,1006.56
2023-04-02T03:06:03.397Z,1006.51
2023-04-02T03:07:03.629Z,1006.58
2023-04-02T03:08:03.487Z,1006.55
2023-04-02T03:09:03.405Z,1006.60
2023-04-02T03:10:03.421Z,1006.62
2023-04-02T03:11:03.445Z,1006.63
2023-04-02T03:12:03.485Z,1006.70
2023-04-02T03:13:03.505Z,1006.66
2023-04-02T03:14:03.833Z,1006.70
2023-04-02T03:15:03.569Z,1006.72
2023-04-02T03:16:03.648Z,1006.72
2023-04-02T03:18:03.684Z,1006.76
2023-04-02T03:19:03.676Z,1006.79
2023-04-02T03:20:03.710Z,1006.82
2023-04-02T03:22:03.766Z,1006.91
2023-04-02T03:23:03.812Z,1006.88
2023-04-02T03:24:03.849Z,1006.88
2023-04-02T03:25:03.856Z,1006.88
2023-04-02T03:26:03.897Z,1006.93
2023-04-02T03:27:04.216Z,1006.93
2023-04-02T03:28:03.947Z,1006.98
2023-04-02T03:29:03.979Z,1007.01
2023-04-02T03:30:04.047Z,1007.01
2023-04-02T03:31:04.146Z,1007.10
2023-04-02T03:32:04.061Z,1007.12
2023-04-02T03:33:04.492Z,1007.10
2023-04-02T03:34:04.125Z,1007.14
2023-04-02T03:35:04.149Z,1007.18
2023-04-02T03:36:04.242Z,1007.18
2023-04-02T03:37:04.206Z,1007.27
2023-04-02T03:38:04.237Z,1007.27
2023-04-02T03:39:04.568Z,1007.30
2023-04-02T03:40:04.320Z,1007.35
2023-04-02T03:42:04.358Z,1007.37
2023-04-02T03:43:04.407Z,1007.42
2023-04-02T03:45:04.744Z,1007.41
2023-04-02T03:46:04.526Z,1007.41
2023-04-02T03:47:04.507Z,1007.47
2023-04-02T03:48:04.584Z,1007.45
2023-04-02T03:49:04.562Z,1007.44
2023-04-02T03:51:04.922Z,1007.53
2023-04-02T03:52:04.648Z,1007.57
2023-04-02T03:54:04.718Z,1007.61
2023-04-02T03:55:04.744Z,1007.62
2023-04-02T03:56:04.788Z,1007.63
2023-04-02T03:57:04.842Z,1007.67
2023-04-02T03:58:04.828Z,1007.68
2023-04-02T03:59:04.854Z,1007.69
2023-04-02T04:00:04.900Z,1007.74
2023-04-02T04:01:04.908Z,1007.73
2023-04-02T04:02:04.958Z,1007.77
2023-04-02T04:03:05.005Z,1007.74
2023-04-02T04:04:05.327Z,1007.78
2023-04-02T04:06:05.057Z,1007.90
2023-04-02T04:07:05.084Z,1007.91
2023-04-02T04:08:05.131Z,1007.91
2023-04-02T04:09:05.143Z,1007.96
2023-04-02T04:10:05.187Z,1007.97
2023-04-02T04:11:05.250Z,1008.00
2023-04-02T04:12:05.302Z,1008.02
2023-04-02T04:13:05.262Z,1008.00
2023-04-02T04:14:05.286Z,1008.02
2023-04-02T04:15:05.318Z,1008.03
2023-04-02T04:16:05.730Z,1008.10
2023-04-02T04:17:05.384Z,1008.09
2023-04-02T04:19:05.489Z,1008.15
2023-04-02T04:20:05.460Z,1008.16
2023-04-02T04:21:05.492Z,1008.16
2023-04-02T04:22:05.518Z,1008.15
2023-04-02T04:23:05.638Z,1008.20
2023-04-02T04:24:05.584Z,1008.24
2023-04-02T04:25:05.624Z,1008.25
2023-04-02T04:26:05.666Z,1008.28
2023-04-02T04:27:05.669Z,1008.30
2023-04-02T04:28:06.044Z,1008.28
2023-04-02T04:29:05.765Z,1008.38
2023-04-02T04:30:05.842Z,1008.33
2023-04-02T04:31:05.790Z,1008.36
2023-04-02T04:32:05.833Z,1008.38
2023-04-02T04:33:05.949Z,1008.42
2023-04-02T04:34:05.873Z,1008.43
2023-04-02T04:35:06.206Z,1008.43
2023-04-02T04:36:05.980Z,1008.54
2023-04-02T04:37:05.962Z,1008.51
2023-04-02T04:38:05.998Z,1008.56
2023-04-02T04:39:06.036Z,1008.56
2023-04-02T04:40:06.050Z,1008.58
2023-04-02T04:41:06.082Z,1008.61
2023-04-02T04:42:06.430Z,1008.62
2023-04-02T04:43:06.155Z,1008.71
2023-04-02T04:44:06.185Z,1008.74
2023-04-02T04:46:06.287Z,1008.75
2023-04-02T04:47:06.254Z,1008.79
2023-04-02T04:48:06.322Z,1008.85
2023-04-02T04:49:06.619Z,1008.86
2023-04-02T04:50:06.442Z,1008.95
2023-04-02T04:51:06.378Z,1008.97
2023-04-02T04:52:06.406Z,1008.95
2023-04-02T04:53:06.425Z,1008.99
2023-04-02T04:54:06.461Z,1009.06
2023-04-02T04:55:06.486Z,1009.01
2023-04-02T04:57:06.882Z,1009.09
2023-04-02T04:58:06.575Z,1009.11
2023-04-02T04:59:06.609Z,1009.12
2023-04-02T05:00:06.658Z,1009.21
2023-04-02T05:01:06.671Z,1009.20
2023-04-02T05:02:06.703Z,1009.29
2023-04-02T05:03:06.729Z,1009.24
2023-04-02T05:05:07.088Z,1009.29
2023-04-02T05:06:06.804Z,1009.28
2023-04-02T05:07:06.847Z,1009.29
2023-04-02T05:08:06.865Z,1009.32
2023-04-02T05:09:06.892Z,1009.35
2023-04-02T05:10:06.920Z,1009.33
2023-04-02T05:11:06.950Z,1009.38
2023-04-02T05:12:07.284Z,1009.38
2023-04-02T05:13:07.164Z,1009.45
2023-04-02T05:14:07.049Z,1009.41
2023-04-02T05:15:07.095Z,1009.44
2023-04-02T05:16:07.154Z,1009.47
2023-04-02T05:17:07.144Z,1009.50
2023-04-02T05:19:07.483Z,1009.52
2023-04-02T05:20:07.212Z,1009.56
2023-04-02T05:21:07.242Z,1009.56
2023-04-02T05:22:07.297Z,1009.59
2023-04-02T05:23:07.302Z,1009.59
2023-04-02T05:24:07.330Z,1009.63
2023-04-02T05:25:07.360Z,1009.65
2023-04-02T05:26:07.689Z,1009.70
2023-04-02T05:27:07.422Z,1009.67
2023-04-02T05:28:07.447Z,1009.72
2023-04-02T05:29:07.524Z,1009.70
2023-04-02T05:30:07.512Z,1009.76
2023-04-02T05:31:07.560Z,1009.76
2023-04-02T05:32:07.579Z,1009.78
2023-04-02T05:33:08.089Z,1009.83
2023-04-02T05:34:07.634Z,1009.85
2023-04-02T05:35:07.657Z,1009.92
2023-04-02T05:36:07.789Z,1009.89
2023-04-02T05:37:07.774Z,1009.92
2023-04-02T05:38:07.850Z,1009.94
2023-04-02T05:39:07.768Z,1009.94
2023-04-02T05:40:08.098Z,1009.94
2023-04-02T05:42:07.862Z,1009.97
2023-04-02T05:43:07.989Z,1010.05
2023-04-02T05:45:08.392Z,1010.08
2023-04-02T05:46:08.088Z,1010.14
2023-04-02T05:47:08.299Z,1010.15
2023-04-02T05:48:08.055Z,1010.21
2023-04-02T05:49:08.060Z,1010.23
2023-04-02T05:52:08.147Z,1010.29
2023-04-02T05:53:08.190Z,1010.34
2023-04-02T05:54:08.508Z,1010.33
2023-04-02T05:55:08.232Z,1010.34
2023-04-02T05:56:08.268Z,1010.39
2023-04-02T05:57:08.310Z,1010.38
2023-04-02T05:58:33.969Z,1010.42
2023-04-02T05:59:08.405Z,1010.50
2023-04-02T06:00:08.382Z,1010.55
2023-04-02T06:01:08.710Z,1010.58
2023-04-02T06:02:08.542Z,1010.51
2023-04-02T06:03:08.537Z,1010.55
2023-04-02T06:04:08.692Z,1010.57
2023-04-02T06:05:08.607Z,1010.72
2023-04-02T06:06:08.586Z,1010.68
2023-04-02T06:07:08.743Z,1010.69
2023-04-02T06:08:08.914Z,1010.72
2023-04-02T06:09:08.659Z,1010.71
2023-04-02T06:10:08.688Z,1010.73
2023-04-02T06:11:08.706Z,1010.76
2023-04-02T06:12:08.727Z,1010.80
2023-04-02T06:13:08.760Z,1010.80
2023-04-02T06:14:08.785Z,1010.83
2023-04-02T06:15:09.129Z,1010.87
2023-04-02T06:16:09.053Z,1010.89
2023-04-02T06:17:09.131Z,1010.93
2023-04-02T06:18:08.961Z,1010.90
2023-04-02T06:19:08.943Z,1010.91
2023-04-02T06:20:08.980Z,1010.98
2023-04-02T06:21:08.986Z,1010.98
2023-04-02T06:22:09.319Z,1010.98
2023-04-02T06:23:09.144Z,1011.01
2023-04-02T06:24:09.078Z,1011.01
2023-04-02T06:25:09.139Z,1011.03
2023-04-02T06:26:09.138Z,1011.09
2023-04-02T06:27:09.177Z,1011.09
2023-04-02T06:28:09.300Z,1011.13
2023-04-02T06:29:09.523Z,1011.13
2023-04-02T06:30:09.313Z,1011.17
2023-04-02T06:31:09.315Z,1011.13
2023-04-02T06:32:09.316Z,1011.17
2023-04-02T06:33:09.394Z,1011.18
2023-04-02T06:34:09.369Z,1011.19
2023-04-02T06:35:10.234Z,1011.27
2023-04-02T06:36:09.494Z,1011.28
2023-04-02T06:37:09.454Z,1011.29
2023-04-02T06:38:09.494Z,1011.30
2023-04-02T06:39:09.516Z,1011.33
2023-04-02T06:40:09.563Z,1011.32
2023-04-02T06:41:09.879Z,1011.36
2023-04-02T06:42:09.761Z,1011.44
2023-04-02T06:43:09.843Z,1011.44
2023-04-02T06:44:09.674Z,1011.42
2023-04-02T06:45:09.692Z,1011.49
2023-04-02T06:46:09.759Z,1011.47
2023-04-02T06:47:10.157Z,1011.47
2023-04-02T06:48:09.830Z,1011.52
2023-04-02T06:49:09.806Z,1011.56
2023-04-02T06:50:09.855Z,1011.61
2023-04-02T06:51:09.878Z,1011.64
2023-04-02T06:52:09.915Z,1011.63
2023-04-02T06:53:09.927Z,1011.69
2023-04-02T06:54:10.253Z,1011.74
2023-04-02T06:55:10.139Z,1011.70
2023-04-02T06:56:10.023Z,1011.73
2023-04-02T06:57:10.077Z,1011.77
2023-04-02T06:58:10.074Z,1011.78
2023-04-02T06:59:10.107Z,1011.86
2023-04-02T07:00:10.134Z,1011.80
2023-04-02T07:01:10.485Z,1011.89
2023-04-02T07:02:10.187Z,1011.93
2023-04-02T07:03:10.248Z,1011.93
2023-04-02T07:04:10.243Z,1011.95
2023-04-02T07:05:10.448Z,1012.00
2023-04-02T07:07:10.327Z,1012.04
2023-04-02T07:08:10.681Z,1012.06
2023-04-02T07:09:10.384Z,1012.05
2023-04-02T07:10:10.422Z,1012.09
2023-04-02T07:11:10.453Z,1012.12
2023-04-02T07:12:10.470Z,1012.16
2023-04-02T07:13:10.505Z,1012.17
2023-04-02T07:14:10.536Z,1012.22
2023-04-02T07:15:10.859Z,1012.20
2023-04-02T07:16:10.597Z,1012.24
2023-04-02T07:17:10.621Z,1012.29
2023-04-02T07:18:10.652Z,1012.26
2023-04-02T07:19:10.674Z,1012.28
2023-04-02T07:20:10.698Z,1012.33
2023-04-02T07:21:10.734Z,1012.37
2023-04-02T07:22:11.065Z,1012.34
2023-04-02T07:23:10.798Z,1012.43
2023-04-02T07:24:10.845Z,1012.36
2023-04-02T07:25:10.849Z,1012.44
2023-04-02T07:26:10.881Z,1012.48
2023-04-02T07:27:10.904Z,1012.50
2023-04-02T07:28:10.944Z,1012.56
2023-04-02T07:29:11.267Z,1012.57
2023-04-02T07:30:10.998Z,1012.58
2023-04-02T07:31:11.074Z,1012.60
2023-04-02T07:32:11.062Z,1012.68
2023-04-02T07:33:11.107Z,1012.70
2023-04-02T07:35:11.144Z,1012.72
2023-04-02T07:36:11.540Z,1012.76
2023-04-02T07:37:11.200Z,1012.85
2023-04-02T07:38:11.231Z,1012.80
2023-04-02T07:40:11.405Z,1012.86
2023-04-02T07:41:11.320Z,1012.87
2023-04-02T07:42:11.358Z,1012.92
2023-04-02T07:43:11.695Z,1012.92
2023-04-02T07:44:11.421Z,1012.92
2023-04-02T07:45:11.438Z,1013.00
2023-04-02T07:46:11.494Z,1012.99
2023-04-02T07:47:11.490Z,1012.99
2023-04-02T07:48:11.533Z,1013.07
2023-04-02T07:49:11.557Z,1013.09
2023-04-02T07:50:11.875Z,1013.16
2023-04-02T07:51:11.714Z,1013.11
2023-04-02T07:52:11.639Z,1013.14
2023-04-02T07:53:11.679Z,1013.20
2023-04-02T07:55:11.725Z,1013.16
2023-04-02T07:56:11.783Z,1013.20
2023-04-02T07:57:12.132Z,1013.23
2023-04-02T07:58:11.810Z,1013.22
2023-04-02T08:00:11.873Z,1013.31
2023-04-02T08:01:11.901Z,1013.32
2023-04-02T08:02:11.962Z,1013.35
2023-04-02T08:03:12.029Z,1013.39
2023-04-02T08:04:12.030Z,1013.39
2023-04-02T08:05:12.029Z,1013.38
2023-04-02T08:06:12.066Z,1013.42
2023-04-02T08:07:12.084Z,1013.39
2023-04-02T08:08:12.113Z,1013.44
2023-04-02T08:09:12.149Z,1013.47
2023-04-02T08:10:12.489Z,1013.51
2023-04-02T08:11:12.200Z,1013.53
2023-04-02T08:12:12.241Z,1013.51
2023-04-02T08:13:12.260Z,1013.58
2023-04-02T08:14:12.282Z,1013.59
2023-04-02T08:15:12.314Z,1013.61
2023-04-02T08:16:12.676Z,1013.61
2023-04-02T08:17:12.377Z,1013.66
2023-04-02T08:18:12.398Z,1013.70
2023-04-02T08:19:12.428Z,1013.70
2023-04-02T08:21:13.738Z,1013.76
2023-04-02T08:22:12.518Z,1013.77
2023-04-02T08:23:12.547Z,1013.82
2023-04-02T08:24:12.584Z,1013.86
2023-04-02T08:25:12.611Z,1013.86
2023-04-02T08:26:12.642Z,1013.91
2023-04-02T08:27:12.667Z,1013.96
2023-04-02T08:28:13.015Z,1013.95
2023-04-02T08:29:12.740Z,1013.98
2023-04-02T08:30:12.771Z,1013.95
2023-04-02T08:31:12.812Z,1013.99
2023-04-02T08:33:12.965Z,1014.09
2023-04-02T08:34:12.878Z,1014.12
2023-04-02T08:35:13.257Z,1014.13
2023-04-02T08:36:13.041Z,1014.16
2023-04-02T08:37:12.972Z,1014.15
2023-04-02T08:38:12.996Z,1014.18
2023-04-02T08:39:13.021Z,1014.23
2023-04-02T08:40:13.045Z,1014.26
2023-04-02T08:42:13.458Z,1014.24
2023-04-02T08:43:13.144Z,1014.23
2023-04-02T08:44:13.195Z,1014.32
2023-04-02T08:45:24.416Z,1014.36
2023-04-02T08:46:13.246Z,1014.33
2023-04-02T08:47:13.251Z,1014.39
2023-04-02T08:48:13.278Z,1014.42
2023-04-02T08:49:13.628Z,1014.43
2023-04-02T08:50:13.356Z,1014.40
2023-04-02T08:51:13.372Z,1014.42
2023-04-02T08:52:13.396Z,1014.50
2023-04-02T08:53:13.424Z,1014.47
2023-04-02T08:54:13.473Z,1014.48
2023-04-02T08:55:13.505Z,1014.53
2023-04-02T08:56:14.012Z,1014.53
2023-04-02T08:57:13.587Z,1014.57
2023-04-02T08:58:13.574Z,1014.59
2023-04-02T08:59:13.612Z,1014.61
2023-04-02T09:00:13.650Z,1014.63
2023-04-02T09:01:13.983Z,1014.64
2023-04-02T09:02:14.120Z,1014.67
2023-04-02T09:03:14.016Z,1014.69
2023-04-02T09:04:13.845Z,1014.68
2023-04-02T09:05:13.795Z,1014.72
2023-04-02T09:06:15.992Z,1014.70
2023-04-02T09:07:13.836Z,1014.73
2023-04-02T09:08:13.864Z,1014.76
2023-04-02T09:09:13.899Z,1014.78
2023-04-02T09:10:14.224Z,1014.81
2023-04-02T09:11:13.964Z,1014.84
2023-04-02T09:12:13.986Z,1014.86
2023-04-02T09:13:14.013Z,1014.86
2023-04-02T09:14:14.056Z,1014.89
2023-04-02T09:15:14.073Z,1014.90
2023-04-02T09:16:14.227Z,1014.92
2023-04-02T09:17:14.426Z,1014.93
2023-04-02T09:18:14.207Z,1014.90
2023-04-02T09:19:14.191Z,1014.91
2023-04-02T09:21:14.250Z,1014.93
2023-04-02T09:22:14.276Z,1014.96
2023-04-02T09:23:14.312Z,1015.01
2023-04-02T09:24:14.655Z,1015.00
2023-04-02T09:25:14.377Z,1015.01
2023-04-02T09:26:14.391Z,1015.05
2023-04-02T09:27:14.455Z,1015.10
2023-04-02T09:28:14.452Z,1015.11
2023-04-02T09:30:14.812Z,1015.13
2023-04-02T09:31:14.584Z,1015.12
2023-04-02T09:32:14.604Z,1015.19
2023-04-02T09:33:14.625Z,1015.20
2023-04-02T09:34:14.630Z,1015.23
2023-04-02T09:35:24.459Z,1015.27
2023-04-02T09:36:16.122Z,1015.28
2023-04-02T09:37:14.736Z,1015.37
2023-04-02T09:38:14.760Z,1015.34
2023-04-02T09:39:14.774Z,1015.39
2023-04-02T09:40:14.818Z,1015.41
2023-04-02T09:41:14.840Z,1015.42
2023-04-02T09:42:15.172Z,1015.45
2023-04-02T09:43:14.899Z,1015.47
2023-04-02T09:44:14.932Z,1015.47
2023-04-02T09:45:14.957Z,1015.54
2023-04-02T09:46:15.044Z,1015.52
2023-04-02T09:47:15.020Z,1015.52
2023-04-02T09:48:15.065Z,1015.58
2023-04-02T09:49:15.070Z,1015.61
2023-04-02T09:50:15.137Z,1015.62
2023-04-02T09:51:15.133Z,1015.65
2023-04-02T09:52:15.163Z,1015.69
2023-04-02T09:53:15.197Z,1015.72
2023-04-02T09:54:15.523Z,1015.73
2023-04-02T09:55:15.251Z,1015.72
2023-04-02T09:56:15.326Z,1015.77
2023-04-02T09:57:15.332Z,1015.76
2023-04-02T09:58:15.360Z,1015.85
2023-04-02T09:59:15.492Z,1015.84
2023-04-02T10:00:29.770Z,1015.87
2023-04-02T10:01:15.437Z,1015.92
2023-04-02T10:03:15.486Z,1015.92
2023-04-02T10:04:15.551Z,1015.95
2023-04-02T10:05:23.558Z,1016.01
2023-04-02T10:06:15.576Z,1016.05
2023-04-02T10:07:15.905Z,1016.11
2023-04-02T10:08:15.735Z,1016.11
2023-04-02T10:09:15.667Z,1016.10
2023-04-02T10:11:15.720Z,1016.10
2023-04-02T10:12:15.752Z,1016.14
2023-04-02T10:13:15.777Z,1016.16
2023-04-02T10:14:15.809Z,1016.17
2023-04-02T10:15:15.844Z,1016.16
2023-04-02T10:16:15.890Z,1016.16
2023-04-02T10:17:15.995Z,1016.18
2023-04-02T10:18:15.933Z,1016.16
2023-04-02T10:19:15.954Z,1016.24
2023-04-02T10:20:16.035Z,1016.26
2023-04-02T10:21:16.033Z,1016.25
2023-04-02T10:22:16.045Z,1016.27
2023-04-02T10:23:16.087Z,1016.27
2023-04-02T10:24:16.115Z,1016.34
2023-04-02T10:26:16.461Z,1016.35
2023-04-02T10:27:16.199Z,1016.40
2023-04-02T10:28:16.222Z,1016.45
2023-04-02T10:29:16.274Z,1016.45
2023-04-02T10:30:16.302Z,1016.47
2023-04-02T10:31:16.350Z,1016.47
2023-04-02T10:32:16.639Z,1016.56
2023-04-02T10:33:16.378Z,1016.53
2023-04-02T10:35:16.435Z,1016.48
2023-04-02T10:36:16.491Z,1016.55
2023-04-02T10:37:16.492Z,1016.56
2023-04-02T10:38:16.526Z,1016.59
2023-04-02T10:39:16.907Z,1016.60
2023-04-02T10:40:16.585Z,1016.62
2023-04-02T10:41:16.611Z,1016.66
2023-04-02T10:42:16.649Z,1016.69
2023-04-02T10:44:20.248Z,1016.69
2023-04-02T10:46:17.176Z,1016.75
2023-04-02T10:47:16.790Z,1016.72
2023-04-02T10:48:16.825Z,1016.73
2023-04-02T10:49:16.881Z,1016.71
2023-04-02T10:50:16.883Z,1016.78
2023-04-02T10:51:17.152Z,1016.79
2023-04-02T10:52:17.013Z,1016.82
2023-04-02T10:54:16.998Z,1016.88
2023-04-02T10:55:17.029Z,1016.93
2023-04-02T10:56:17.071Z,1016.96
2023-04-02T10:57:17.141Z,1016.97
2023-04-02T10:59:17.450Z,1017.04
2023-04-02T11:00:17.172Z,1017.04
2023-04-02T11:01:17.246Z,1017.02
2023-04-02T11:02:17.361Z,1017.05
2023-04-02T11:03:17.643Z,1017.11
2023-04-02T11:04:17.339Z,1017.08
2023-04-02T11:05:17.328Z,1017.04
2023-04-02T11:06:17.666Z,1017.13
2023-04-02T11:07:17.500Z,1017.14
2023-04-02T11:08:17.436Z,1017.17
2023-04-02T11:09:17.451Z,1017.14
2023-04-02T11:10:17.474Z,1017.13
2023-04-02T11:11:17.517Z,1017.19
2023-04-02T11:12:17.535Z,1017.19
2023-04-02T11:13:17.869Z,1017.19
2023-04-02T11:14:17.821Z,1017.21
2023-04-02T11:15:17.628Z,1017.27
2023-04-02T11:16:17.692Z,1017.21
2023-04-02T11:17:18.034Z,1017.27
2023-04-02T11:18:17.723Z,1017.27
2023-04-02T11:19:17.745Z,1017.25
2023-04-02T11:20:18.072Z,1017.30
2023-04-02T11:21:17.814Z,1017.32
2023-04-02T11:22:17.836Z,1017.29
2023-04-02T11:23:17.866Z,1017.29
2023-04-02T11:24:17.912Z,1017.33
2023-04-02T11:25:17.922Z,1017.35
2023-04-02T11:26:17.949Z,1017.37
2023-04-02T11:27:18.283Z,1017.37
2023-04-02T11:28:18.013Z,1017.41
2023-04-02T11:29:18.043Z,1017.47
2023-04-02T11:30:18.090Z,1017.45
2023-04-02T11:31:18.158Z,1017.48
2023-04-02T11:32:18.129Z,1017.45
2023-04-02T11:33:20.855Z,1017.45
2023-04-02T11:34:18.190Z,1017.43
2023-04-02T11:35:18.289Z,1017.44
2023-04-02T11:36:18.280Z,1017.50
2023-04-02T11:37:18.283Z,1017.46
2023-04-02T11:38:18.316Z,1017.45
2023-04-02T11:39:18.343Z,1017.49
2023-04-02T11:40:18.689Z,1017.54
2023-04-02T11:41:18.405Z,1017.55
2023-04-02T11:42:18.431Z,1017.47
2023-04-02T11:43:18.461Z,1017.52
2023-04-02T11:44:18.487Z,1017.54
2023-04-02T11:45:20.580Z,1017.55
2023-04-02T11:46:18.880Z,1017.56
2023-04-02T11:47:18.579Z,1017.62
2023-04-02T11:48:18.615Z,1017.61
2023-04-02T11:49:18.640Z,1017.64
2023-04-02T11:50:18.667Z,1017.66
2023-04-02T11:51:21.112Z,1017.63
2023-04-02T11:52:19.038Z,1017.65
2023-04-02T11:53:18.765Z,1017.63
2023-04-02T11:54:18.795Z,1017.65
2023-04-02T11:55:18.859Z,1017.67
2023-04-02T11:56:18.866Z,1017.67
2023-04-02T11:57:21.035Z,1017.71
2023-04-02T11:58:18.909Z,1017.78
2023-04-02T11:59:19.241Z,1017.73
2023-04-02T12:00:18.974Z,1017.74
2023-04-02T12:01:19.050Z,1017.77
2023-04-02T12:02:19.096Z,1017.77
2023-04-02T12:03:19.149Z,1017.80
2023-04-02T12:04:19.090Z,1017.78
2023-04-02T12:05:19.203Z,1017.83
2023-04-02T12:07:19.185Z,1017.85
2023-04-02T12:08:19.206Z,1017.87
2023-04-02T12:09:19.243Z,1017.91
2023-04-02T12:10:19.291Z,1017.86
2023-04-02T12:11:19.296Z,1017.88
2023-04-02T12:12:19.883Z,1017.86
2023-04-02T12:14:19.392Z,1017.88
2023-04-02T12:15:19.421Z,1017.91
2023-04-02T12:16:19.504Z,1017.94
2023-04-02T12:17:19.486Z,1017.92
2023-04-02T12:18:19.515Z,1017.93
2023-04-02T12:19:20.061Z,1017.92
2023-04-02T12:20:19.581Z,1017.96
2023-04-02T12:21:19.597Z,1017.93
2023-04-02T12:22:19.632Z,1017.99
2023-04-02T12:23:19.714Z,1018.01
2023-04-02T12:24:19.710Z,1018.11
2023-04-02T12:25:19.777Z,1018.15
2023-04-02T12:26:21.885Z,1018.11
2023-04-02T12:27:19.782Z,1018.11
2023-04-02T12:29:19.860Z,1018.12
2023-04-02T12:30:19.887Z,1018.21
2023-04-02T12:31:19.945Z,1018.19
2023-04-02T12:32:19.949Z,1018.22
2023-04-02T12:33:20.279Z,1018.19
2023-04-02T12:34:20.016Z,1018.27
2023-04-02T12:35:20.034Z,1018.23
2023-04-02T12:36:20.119Z,1018.26
2023-04-02T12:37:20.090Z,1018.25
2023-04-02T12:38:20.115Z,1018.25
2023-04-02T12:39:20.143Z,1018.26
2023-04-02T12:40:20.471Z,1018.33
2023-04-02T12:41:20.208Z,1018.26
2023-04-02T12:42:20.237Z,1018.31
2023-04-02T12:43:20.362Z,1018.24
2023-04-02T12:44:20.296Z,1018.30
2023-04-02T12:45:20.344Z,1018.27
2023-04-02T12:46:20.458Z,1018.34